Time;durP1;ratioP1;P1;durP2;ratioP2;P2;SDS_P1;SDS_P2;PMS_P1;PMS_P2;Temp;Humidity;BMP_temperature;BMP_pressure;BME280_temperature;BME280_humidity;BME280_pressure;Samples;Min_cycle;Max_cycle;Signal;HPM_P1;HPM_P2
2023/03/20 08:25:21;;;;;;;2.80;1.90;;;;;;;9.24;82.30;96939.75;2100907;27;20550;-60
2023/03/20 08:26:24;;;;;;;7.22;1.90;;;;;;;9.37;82.60;96945.38;2099901;28;20223;-61
2023/03/20 08:27:25;;;;;;;2.38;1.60;;;;;;;9.37;81.15;96945.38;2098236;28;20200;-61
2023/03/20 08:28:26;;;;;;;2.53;1.70;;;;;;;9.57;79.99;96948.16;2097710;28;20231;-61
2023/03/20 08:29:46;;;;;;;3.53;2.13;;;;;;;9.58;79.91;96936.81;2090064;28;20231;-60
2023/03/20 08:30:48;;;;;;;5.85;2.05;;;;;;;9.79;80.16;96931.75;2090058;28;20197;-61
2023/03/20 08:31:49;;;;;;;4.20;2.38;;;;;;;10.09;78.60;96941.91;2089750;28;20599;-61
2023/03/20 08:32:51;;;;;;;3.10;1.80;;;;;;;10.36;77.74;96936.56;2089191;28;20655;-61
2023/03/20 08:33:54;;;;;;;3.67;2.20;;;;;;;10.58;77.72;96939.19;2096232;28;20322;-61
2023/03/20 08:34:55;;;;;;;3.05;2.00;;;;;;;10.78;76.17;96931.41;2088110;28;20198;-62
2023/03/20 08:35:58;;;;;;;2.60;1.80;;;;;;;11.09;75.01;96934.50;2078892;28;20201;-61
2023/03/20 08:37:02;;;;;;;3.45;1.65;;;;;;;11.78;73.06;96938.47;2079583;28;20248;-62
2023/03/20 08:38:03;;;;;;;4.43;1.83;;;;;;;12.55;69.86;96937.56;2082281;28;20216;-61
2023/03/20 08:39:08;;;;;;;2.53;1.92;;;;;;;12.88;68.03;96936.03;2077654;28;20215;-62
2023/03/20 08:40:10;;;;;;;2.85;1.75;;;;;;;12.89;68.25;96945.59;2079194;28;20231;-61
2023/03/20 08:41:12;;;;;;;2.03;1.42;;;;;;;13.97;66.44;96941.88;2081708;28;20220;-62
2023/03/20 08:42:13;;;;;;;2.97;1.35;;;;;;;14.71;63.54;96927.31;2082450;28;20263;-61
2023/03/20 08:43:15;;;;;;;2.15;1.20;;;;;;;14.87;63.02;96935.19;2082509;28;20538;-62
2023/03/20 08:44:17;;;;;;;3.03;1.65;;;;;;;13.88;63.80;96933.56;2079600;28;20228;-62
2023/03/20 08:45:18;;;;;;;2.50;1.70;;;;;;;13.69;64.17;96940.72;2081769;28;20774;-62
2023/03/20 08:46:20;;;;;;;3.25;1.77;;;;;;;13.99;64.64;96940.00;2080886;28;20202;-60
2023/03/20 08:47:21;;;;;;;4.00;1.88;;;;;;;13.77;64.75;96938.53;2079954;28;20208;-60
2023/03/20 08:48:22;;;;;;;4.40;1.92;;;;;;;13.43;65.37;96935.03;2081697;28;20546;-60
2023/03/20 08:49:24;;;;;;;2.60;1.70;;;;;;;13.30;65.29;96937.41;2088455;28;20225;-61
2023/03/20 08:50:25;;;;;;;3.40;1.70;;;;;;;13.27;64.76;96941.94;2085915;28;20840;-60
2023/03/20 08:51:27;;;;;;;3.22;1.65;;;;;;;12.89;66.65;96946.41;2079185;28;20208;-60
2023/03/20 08:52:28;;;;;;;2.65;1.80;;;;;;;12.56;67.44;96938.44;2082143;28;20237;-60
2023/03/20 08:53:30;;;;;;;5.00;2.03;;;;;;;12.16;69.32;96945.53;2078555;28;20216;-60
2023/03/20 08:54:32;;;;;;;3.30;2.00;;;;;;;12.08;69.99;96944.13;2077883;28;20275;-60
2023/03/20 08:55:34;;;;;;;2.38;1.40;;;;;;;11.90;70.60;96937.94;2081978;28;20670;-60
2023/03/20 08:56:35;;;;;;;2.97;1.65;;;;;;;11.83;70.11;96939.13;2080592;28;20197;-60
2023/03/20 08:57:37;;;;;;;2.40;1.70;;;;;;;11.80;70.57;96952.34;2081861;28;20264;-60
2023/03/20 08:58:39;;;;;;;3.35;1.85;;;;;;;11.64;71.81;96953.94;2078441;28;20206;-60
2023/03/20 08:59:40;;;;;;;6.03;2.63;;;;;;;11.15;70.97;96952.53;2078885;28;20666;-60
2023/03/20 09:00:42;;;;;;;4.68;2.25;;;;;;;10.99;71.65;96949.69;2084085;28;20217;-60
2023/03/20 09:01:44;;;;;;;3.53;2.15;;;;;;;10.85;71.28;96950.28;2080301;28;20244;-60
2023/03/20 09:02:51;;;;;;;2.90;2.00;;;;;;;11.06;70.71;96948.53;2081169;28;20232;-60
2023/03/20 09:03:52;;;;;;;3.92;2.03;;;;;;;11.08;70.24;96948.47;2077868;28;20235;-60
2023/03/20 09:04:54;;;;;;;4.18;1.75;;;;;;;11.04;71.44;96952.97;2079197;28;20205;-61
2023/03/20 09:05:55;;;;;;;3.65;1.70;;;;;;;11.38;70.67;96951.53;2078235;28;20209;-61
2023/03/20 09:06:57;;;;;;;4.70;1.95;;;;;;;11.44;70.33;96960.91;2078673;28;20649;-60
2023/03/20 09:07:59;;;;;;;4.50;1.80;;;;;;;11.41;69.25;96948.81;2082393;28;20208;-60
2023/03/20 09:09:00;;;;;;;5.47;2.60;;;;;;;11.23;69.99;96954.81;2078973;28;20204;-60
2023/03/20 09:10:03;;;;;;;3.13;1.85;;;;;;;11.25;70.52;96951.22;2079216;28;20200;-60
2023/03/20 09:11:05;;;;;;;3.15;1.85;;;;;;;11.47;70.26;96960.75;2079778;28;20200;-60
2023/03/20 09:12:07;;;;;;;2.58;1.63;;;;;;;11.87;69.63;96964.25;2080509;28;20222;-60
2023/03/20 09:13:09;;;;;;;3.85;2.00;;;;;;;11.67;68.45;96959.91;2078110;28;20225;-60
2023/03/20 09:14:28;;;;;;;3.03;1.70;;;;;;;11.80;68.21;96960.19;2078966;28;20220;-60
2023/03/20 09:15:29;;;;;;;4.65;2.42;;;;;;;12.02;69.76;96956.66;2080129;28;20580;-59
2023/03/20 09:16:31;;;;;;;4.35;2.30;;;;;;;12.33;68.58;96957.84;2080869;28;21007;-60
2023/03/20 09:17:32;;;;;;;3.72;2.08;;;;;;;12.24;67.34;96959.16;2083497;28;20200;-60
2023/03/20 09:18:34;;;;;;;3.20;1.95;;;;;;;12.37;66.92;96951.56;2081384;28;20278;-60
2023/03/20 09:19:38;;;;;;;3.63;2.13;;;;;;;12.34;66.88;96949.94;2078596;28;20644;-60
2023/03/20 09:20:40;;;;;;;4.95;2.28;;;;;;;12.45;66.23;96959.06;2080441;28;20199;-60
2023/03/20 09:21:41;;;;;;;3.70;2.10;;;;;;;12.56;66.65;96951.53;2081124;28;20651;-60
2023/03/20 09:22:44;;;;;;;5.28;2.58;;;;;;;12.89;65.37;96954.28;2078196;28;20657;-62
2023/03/20 09:23:46;;;;;;;3.95;2.05;;;;;;;13.01;65.86;96958.06;2082590;28;20235;-60
2023/03/20 09:24:47;;;;;;;4.32;2.38;;;;;;;12.97;66.07;96960.94;2081782;28;20545;-60
2023/03/20 09:25:49;;;;;;;3.83;1.80;;;;;;;13.40;65.06;96961.44;2081425;28;20235;-60
2023/03/20 09:26:51;;;;;;;3.20;2.00;;;;;;;13.63;65.27;96959.41;2081948;28;20201;-60
2023/03/20 09:27:55;;;;;;;3.72;1.90;;;;;;;13.92;63.98;96959.66;2078143;28;20802;-61
2023/03/20 09:28:57;;;;;;;3.78;2.20;;;;;;;13.77;63.60;96954.25;2078168;28;20292;-60
2023/03/20 09:29:58;;;;;;;6.68;2.45;;;;;;;13.91;65.36;96957.94;2080004;28;20198;-61
2023/03/20 09:31:00;;;;;;;7.10;1.92;;;;;;;14.20;65.07;96959.00;2079126;28;20198;-60
2023/03/20 09:32:02;;;;;;;3.15;2.10;;;;;;;13.60;64.87;96960.41;2082943;28;20547;-61
2023/03/20 09:33:04;;;;;;;3.90;2.05;;;;;;;13.60;64.57;96962.16;2081766;28;20639;-61
2023/03/20 09:34:06;;;;;;;5.28;2.50;;;;;;;13.31;65.70;96956.63;2080427;28;20202;-61
2023/03/20 09:35:07;;;;;;;4.18;2.10;;;;;;;13.39;66.53;96959.72;2083366;28;20202;-60
2023/03/20 09:36:10;;;;;;;3.83;2.30;;;;;;;13.26;66.03;96958.63;2075423;28;20213;-61
2023/03/20 09:37:12;;;;;;;5.07;2.42;;;;;;;12.66;65.63;96965.03;2073413;28;20221;-61
2023/03/20 09:38:14;;;;;;;3.42;2.20;;;;;;;12.29;66.95;96962.41;2075103;28;20220;-61
2023/03/20 09:39:15;;;;;;;6.50;2.20;;;;;;;12.46;67.41;96958.13;2075218;28;20384;-61
2023/03/20 09:40:30;;;;;;;4.15;1.95;;;;;;;12.55;67.48;96963.78;2075164;28;20577;-61
2023/03/20 09:41:35;;;;;;;3.17;1.85;;;;;;;12.56;66.46;96960.22;2076889;28;20208;-61
2023/03/20 09:43:33;;;;;;;3.70;2.15;;;;;;;12.93;65.73;96967.25;2076041;28;20209;-61
2023/03/20 09:44:45;;;;;;;3.10;1.75;;;;;;;12.63;64.77;96966.03;2074594;28;20226;-61
2023/03/20 09:46:13;;;;;;;3.22;2.00;;;;;;;12.61;65.62;96980.13;2072451;28;20230;-61
2023/03/20 09:47:30;;;;;;;3.33;2.20;;;;;;;13.07;65.66;96962.16;2073871;28;20198;-61
2023/03/20 09:48:52;;;;;;;3.50;2.05;;;;;;;12.76;64.92;96968.06;2075536;28;20197;-61
2023/03/20 09:50:24;;;;;;;6.22;2.13;;;;;;;13.13;64.98;96972.34;2075013;28;20257;-61
2023/03/20 09:51:41;;;;;;;3.72;1.88;;;;;;;13.21;64.26;96975.44;2074816;28;20661;-61
2023/03/20 09:52:52;;;;;;;3.38;2.22;;;;;;;13.42;64.53;96967.47;2074384;28;20277;-61
2023/03/20 09:53:59;;;;;;;3.83;2.20;;;;;;;13.23;62.49;96975.38;2075912;28;20522;-61
2023/03/20 09:55:11;;;;;;;3.38;2.05;;;;;;;13.25;62.35;96972.66;2072382;28;20353;-60
2023/03/20 09:56:19;;;;;;;4.20;2.20;;;;;;;13.23;63.35;96972.75;2075852;28;20244;-61
2023/03/20 09:57:44;;;;;;;6.07;2.55;;;;;;;13.34;64.31;96972.19;2077628;28;20233;-61
2023/03/20 09:58:57;;;;;;;4.22;2.42;;;;;;;12.92;63.94;96974.25;2075137;28;20209;-61
2023/03/20 10:00:06;;;;;;;4.18;1.90;;;;;;;12.80;63.93;96966.97;2073910;28;20229;-61
2023/03/20 10:01:14;;;;;;;5.85;2.72;;;;;;;12.39;63.75;96971.53;2073841;28;20503;-61
2023/03/20 10:02:27;;;;;;;4.28;2.22;;;;;;;11.91;65.20;96925.72;2072622;28;20203;-61
2023/03/20 10:03:41;;;;;;;3.75;2.15;;;;;;;12.11;67.11;96960.63;2074792;28;20645;-61
2023/03/20 10:04:46;;;;;;;4.80;2.42;;;;;;;12.43;67.10;96972.22;2074307;28;20217;-61
2023/03/20 10:05:55;;;;;;;4.60;2.63;;;;;;;12.33;67.44;96971.81;2075011;28;20209;-61
2023/03/20 10:06:57;;;;;;;4.50;2.20;;;;;;;12.44;66.62;96971.28;2074434;28;20202;-61
2023/03/20 10:08:01;;;;;;;4.25;2.40;;;;;;;12.43;67.61;96974.84;2076235;28;20209;-61
2023/03/20 10:09:16;;;;;;;3.28;1.95;;;;;;;12.63;67.63;96973.88;2074222;28;20197;-61
2023/03/20 10:10:21;;;;;;;2.85;1.85;;;;;;;12.66;67.33;96981.59;2075689;28;20205;-61
2023/03/20 10:11:47;;;;;;;4.57;2.15;;;;;;;12.71;66.82;96977.00;2072051;28;20209;-61
2023/03/20 10:13:00;;;;;;;4.57;2.53;;;;;;;12.57;66.45;96967.19;2073315;28;20201;-61
2023/03/20 10:14:23;;;;;;;5.07;2.67;;;;;;;12.64;67.18;96972.97;2071720;28;20224;-61
2023/03/20 10:16:00;;;;;;;6.47;2.65;;;;;;;12.71;67.93;96978.78;2075534;28;20221;-61
2023/03/20 10:17:27;;;;;;;4.82;2.20;;;;;;;12.61;68.54;96975.75;2073864;28;20203;-61
2023/03/20 10:18:33;;;;;;;6.00;2.95;;;;;;;12.46;69.13;96976.47;2072236;28;20205;-61
2023/03/20 10:19:44;;;;;;;4.30;2.42;;;;;;;12.17;68.47;96976.03;2073638;28;20224;-61
2023/03/20 10:21:12;;;;;;;3.80;2.38;;;;;;;11.92;69.97;96979.72;2075035;28;20199;-61
2023/03/20 10:22:20;;;;;;;5.85;2.53;;;;;;;11.93;70.27;96979.69;2073187;28;20234;-61
2023/03/20 10:23:29;;;;;;;4.65;2.83;;;;;;;11.83;69.76;96982.75;2072485;28;20202;-61
2023/03/20 10:24:35;;;;;;;6.43;2.70;;;;;;;11.68;70.42;96976.44;2073822;28;20221;-61
2023/03/20 10:25:45;;;;;;;5.32;3.30;;;;;;;11.52;70.28;96986.72;2077861;28;20677;-61
2023/03/20 10:26:51;;;;;;;4.68;3.25;;;;;;;11.34;71.46;96983.97;2076253;28;20202;-61
2023/03/20 10:28:04;;;;;;;9.70;3.38;;;;;;;11.26;72.21;96986.06;2075435;28;20202;-61
2023/03/20 10:29:25;;;;;;;6.53;3.63;;;;;;;11.31;72.20;96988.47;2075560;28;20228;-61
2023/03/20 10:30:39;;;;;;;4.78;2.85;;;;;;;11.26;72.19;96983.44;2074046;28;20664;-61
2023/03/20 10:31:50;;;;;;;9.20;2.95;;;;;;;11.27;71.81;96982.53;2074825;28;20413;-61
2023/03/20 10:32:59;;;;;;;5.30;3.28;;;;;;;11.32;72.40;96979.72;2072303;28;20672;-60
2023/03/20 10:34:16;;;;;;;4.95;3.20;;;;;;;11.54;71.47;96979.66;2072018;28;20259;-61
2023/03/20 10:35:58;;;;;;;6.65;3.35;;;;;;;12.01;69.49;96974.13;2076144;28;20251;-61
2023/03/20 10:37:11;;;;;;;9.38;3.30;;;;;;;12.30;69.31;96973.72;2075090;28;20232;-61
2023/03/20 10:38:42;;;;;;;4.10;2.67;;;;;;;12.87;67.34;96973.63;2075570;28;20193;-61
2023/03/20 10:40:10;;;;;;;7.65;3.40;;;;;;;13.08;66.12;96974.34;2076691;28;20232;-61
2023/03/20 10:41:17;;;;;;;8.90;3.35;;;;;;;13.26;65.66;96971.75;2083216;28;20197;-62
2023/03/20 10:42:27;;;;;;;4.95;3.05;;;;;;;13.23;66.28;96973.59;2084288;28;20641;-61
2023/03/20 10:43:33;;;;;;;6.22;2.63;;;;;;;13.40;65.26;96971.91;2084177;28;20208;-61
2023/03/20 10:44:52;;;;;;;6.43;3.60;;;;;;;13.45;64.30;96966.44;2076963;28;20261;-61
2023/03/20 10:46:18;;;;;;;6.53;3.40;;;;;;;13.93;64.13;96972.69;2075582;28;20695;-61
2023/03/20 10:47:23;;;;;;;5.63;3.35;;;;;;;14.44;62.32;96963.84;2075578;28;20285;-61
2023/03/20 10:48:39;;;;;;;5.40;2.95;;;;;;;15.61;59.55;96964.22;2078662;28;20198;-61
2023/03/20 10:49:59;;;;;;;4.35;2.97;;;;;;;15.03;60.42;96966.69;2077847;28;20255;-61
2023/03/20 10:51:02;;;;;;;5.13;3.10;;;;;;;14.87;61.03;96961.47;2072087;28;20207;-61
2023/03/20 10:52:29;;;;;;;3.92;3.00;;;;;;;14.76;61.38;96967.34;2076523;28;20202;-61
2023/03/20 10:53:40;;;;;;;4.55;2.75;;;;;;;14.73;61.17;96961.41;2075219;28;20202;-61
2023/03/20 10:54:47;;;;;;;5.18;3.03;;;;;;;15.60;60.56;96962.53;2073648;28;21066;-61
2023/03/20 10:55:49;;;;;;;7.45;3.40;;;;;;;15.79;58.06;96963.09;2075472;28;20289;-61
2023/03/20 10:56:54;;;;;;;7.93;2.95;;;;;;;16.74;55.96;96963.38;2074930;28;20238;-61
2023/03/20 10:58:12;;;;;;;4.32;2.58;;;;;;;17.46;54.76;96962.25;2077096;28;20746;-61
2023/03/20 10:59:27;;;;;;;5.43;3.10;;;;;;;18.02;52.60;96964.63;2075451;28;20264;-61
2023/03/20 11:00:29;;;;;;;5.28;2.78;;;;;;;18.79;50.69;96950.34;2076029;28;20197;-61
2023/03/20 11:01:30;;;;;;;4.13;2.63;;;;;;;18.37;51.08;96955.16;2077658;28;21143;-61
2023/03/20 11:02:36;;;;;;;4.13;2.38;;;;;;;18.76;50.58;96951.41;2076760;28;20648;-61
2023/03/20 11:03:38;;;;;;;3.55;2.33;;;;;;;19.56;48.96;96955.25;2075649;28;20239;-61
2023/03/20 11:04:40;;;;;;;3.75;2.45;;;;;;;19.40;48.43;96955.56;2075003;28;20233;-62
2023/03/20 11:05:42;;;;;;;5.50;2.80;;;;;;;19.67;48.59;96959.72;2075118;28;20204;-61
2023/03/20 11:07:06;;;;;;;4.85;2.50;;;;;;;18.89;50.82;96950.53;2071988;28;20194;-61
2023/03/20 11:08:12;;;;;;;4.47;2.60;;;;;;;17.78;51.85;96946.84;2050881;28;20226;-61
2023/03/20 11:09:18;;;;;;;4.15;2.92;;;;;;;17.42;51.55;96958.97;2072307;28;21798;-62
2023/03/20 11:10:19;;;;;;;3.08;1.77;;;;;;;17.53;52.66;96952.13;2074846;28;20205;-61
2023/03/20 11:11:26;;;;;;;7.15;2.90;;;;;;;18.32;51.15;96952.84;2074939;28;20194;-61
2023/03/20 11:12:32;;;;;;;3.97;2.22;;;;;;;18.76;49.02;96959.34;2074982;28;20204;-61
2023/03/20 11:13:35;;;;;;;4.85;2.15;;;;;;;19.21;48.96;96966.72;2075408;28;20233;-61
2023/03/20 11:14:38;;;;;;;5.18;2.00;;;;;;;20.09;46.74;96955.69;2074860;28;20217;-62
2023/03/20 11:15:40;;;;;;;3.20;1.80;;;;;;;19.43;47.01;96957.16;2076203;28;20696;-61
2023/03/20 11:16:41;;;;;;;3.38;2.20;;;;;;;19.34;47.05;96948.09;2075459;28;20229;-61
2023/03/20 11:17:50;;;;;;;3.17;1.77;;;;;;;18.75;47.25;96962.13;2076423;28;20198;-62
2023/03/20 11:18:52;;;;;;;4.00;2.15;;;;;;;18.83;48.50;96957.13;2076001;28;20201;-62
2023/03/20 11:20:03;;;;;;;3.47;2.13;;;;;;;17.59;49.13;96954.34;2070837;28;20343;-62
2023/03/20 11:21:12;;;;;;;3.40;2.13;;;;;;;16.88;50.95;96956.38;2074768;28;20194;-61
2023/03/20 11:22:20;;;;;;;4.03;1.95;;;;;;;16.58;53.40;96960.03;2074604;28;20198;-62
2023/03/20 11:23:34;;;;;;;3.80;1.75;;;;;;;16.40;52.25;96957.63;2074123;28;20226;-61
2023/03/20 11:24:40;;;;;;;2.92;1.77;;;;;;;16.89;51.45;96964.19;2072963;28;20316;-61
2023/03/20 11:25:50;;;;;;;4.18;2.40;;;;;;;17.06;51.19;96955.19;2073195;28;20216;-61
2023/03/20 11:26:54;;;;;;;3.78;1.88;;;;;;;17.39;51.70;96951.25;2075715;28;20210;-61
2023/03/20 11:27:57;;;;;;;3.58;2.03;;;;;;;16.76;52.70;96952.72;2075562;28;20674;-61
2023/03/20 11:28:59;;;;;;;6.15;2.00;;;;;;;16.60;53.03;96950.25;2071303;28;20209;-61
2023/03/20 11:30:02;;;;;;;6.13;2.20;;;;;;;17.71;51.16;96958.78;2075488;28;20197;-61
2023/03/20 11:31:10;;;;;;;3.08;2.22;;;;;;;17.52;49.83;96953.94;2075308;28;20396;-61
2023/03/20 11:32:33;;;;;;;5.68;2.10;;;;;;;17.65;50.84;96945.16;2074344;28;20205;-61
2023/03/20 11:33:42;;;;;;;3.85;2.38;;;;;;;18.95;49.41;96952.75;2075275;28;20194;-61
2023/03/20 11:34:44;;;;;;;4.68;2.45;;;;;;;18.84;49.62;96948.25;2074767;28;20251;-61
2023/03/20 11:35:46;;;;;;;5.80;3.28;;;;;;;18.56;49.95;96949.38;2075274;28;20195;-61
2023/03/20 11:36:57;;;;;;;3.97;2.05;;;;;;;18.21;51.06;96953.59;2071813;28;20187;-61
2023/03/20 11:38:20;;;;;;;4.75;2.20;;;;;;;17.91;49.76;96956.56;2074695;28;20202;-61
2023/03/20 11:39:25;;;;;;;3.17;1.80;;;;;;;17.36;50.59;96942.72;2074506;28;20558;-61
2023/03/20 11:40:31;;;;;;;2.75;1.58;;;;;;;16.31;52.08;96945.03;2074213;28;20202;-61
2023/03/20 11:41:32;;;;;;;3.58;1.98;;;;;;;15.99;53.53;96946.09;2074223;28;20672;-61
2023/03/20 11:42:36;;;;;;;3.63;2.15;;;;;;;16.10;53.22;96948.09;2073520;28;20200;-61
2023/03/20 11:43:40;;;;;;;3.22;1.60;;;;;;;16.44;50.98;96948.59;2075074;28;20221;-61
2023/03/20 11:44:41;;;;;;;3.60;1.73;;;;;;;16.28;52.12;96953.16;2075238;28;20258;-61
2023/03/20 11:45:46;;;;;;;2.17;1.42;;;;;;;16.33;53.08;96948.44;2076308;28;20221;-61
2023/03/20 11:47:02;;;;;;;5.15;2.40;;;;;;;16.49;54.59;96953.56;2074044;28;20215;-62
2023/03/20 11:48:11;;;;;;;3.42;2.25;;;;;;;17.26;53.18;96951.22;2074814;28;20639;-61
2023/03/20 11:49:21;;;;;;;4.07;2.60;;;;;;;17.93;51.84;96949.38;2073833;28;20209;-61
2023/03/20 11:50:28;;;;;;;4.15;2.33;;;;;;;17.68;51.98;96944.97;2075864;28;20852;-61
2023/03/20 11:51:31;;;;;;;3.00;1.90;;;;;;;16.47;52.74;96948.41;2075028;28;20201;-61
2023/03/20 11:52:35;;;;;;;7.05;3.33;;;;;;;16.04;54.07;96945.84;2075239;28;20205;-61
2023/03/20 11:53:45;;;;;;;5.78;2.60;;;;;;;16.08;54.97;96942.06;2078877;28;20562;-61
2023/03/20 11:54:51;;;;;;;4.25;2.63;;;;;;;15.82;55.64;96938.41;2077135;28;20332;-61
2023/03/20 11:56:10;;;;;;;5.60;2.95;;;;;;;15.79;55.65;96943.81;2075203;28;20607;-61
2023/03/20 11:57:35;;;;;;;5.30;2.47;;;;;;;16.45;55.57;96945.00;2075955;28;20201;-61
2023/03/20 11:58:53;;;;;;;2.97;2.20;;;;;;;16.25;54.71;96938.38;2073377;28;20213;-61
2023/03/20 11:59:55;;;;;;;6.53;2.72;;;;;;;16.44;54.59;96934.56;2076318;28;20229;-61
2023/03/20 12:00:57;;;;;;;8.88;2.78;;;;;;;16.41;54.45;96938.25;2078941;28;20205;-61
2023/03/20 12:01:59;;;;;;;4.00;2.20;;;;;;;15.41;53.34;96939.94;2074109;28;20194;-62
2023/03/20 12:03:02;;;;;;;4.20;2.30;;;;;;;15.01;54.83;96937.03;2071510;28;20195;-61
2023/03/20 12:04:08;;;;;;;3.45;2.08;;;;;;;14.75;56.42;96935.88;2074845;28;20195;-61
2023/03/20 12:05:27;;;;;;;3.88;1.67;;;;;;;14.47;56.27;96930.34;2074781;28;20198;-61
2023/03/20 12:06:53;;;;;;;4.88;2.05;;;;;;;13.93;57.75;96946.44;2074292;28;20263;-61
2023/03/20 12:08:19;;;;;;;2.75;1.77;;;;;;;14.18;57.89;96940.72;2075037;28;20589;-61
2023/03/20 12:09:32;;;;;;;4.30;2.22;;;;;;;14.04;58.19;96940.59;2074321;28;20225;-61
2023/03/20 12:10:40;;;;;;;6.30;2.47;;;;;;;13.85;58.64;96935.47;2073883;28;20201;-61
2023/03/20 12:11:51;;;;;;;3.63;1.90;;;;;;;13.70;59.77;96937.16;2075053;28;20664;-61
2023/03/20 12:13:01;;;;;;;3.28;2.33;;;;;;;13.20;60.07;96939.66;2075186;28;20206;-60
2023/03/20 12:14:07;;;;;;;4.82;2.58;;;;;;;13.45;60.59;96943.69;2074447;28;20198;-61
2023/03/20 12:15:12;;;;;;;3.78;2.33;;;;;;;13.63;60.81;96939.25;2075158;28;20206;-61
2023/03/20 12:16:20;;;;;;;4.50;2.58;;;;;;;13.51;60.44;96945.13;2075005;28;20226;-61
2023/03/20 12:17:40;;;;;;;4.32;2.15;;;;;;;13.88;60.30;96949.28;2075302;28;20588;-61
2023/03/20 12:18:47;;;;;;;3.70;2.08;;;;;;;13.65;59.88;96931.28;2076202;28;20324;-61
2023/03/20 12:19:53;;;;;;;4.47;2.05;;;;;;;13.69;59.39;96928.44;2074703;28;20979;-61
2023/03/20 12:21:06;;;;;;;3.97;2.05;;;;;;;14.18;60.04;96937.22;2075359;28;20214;-61
2023/03/20 12:22:22;;;;;;;3.85;1.92;;;;;;;14.28;59.24;96932.31;2073190;28;20726;-61
2023/03/20 12:23:36;;;;;;;4.43;2.10;;;;;;;14.01;59.78;96928.47;2076983;28;20197;-61
2023/03/20 12:24:48;;;;;;;5.57;2.60;;;;;;;13.43;59.40;96927.16;2074546;28;20236;-60
2023/03/20 12:26:03;;;;;;;7.10;3.30;;;;;;;13.60;60.56;96930.69;2075194;28;20229;-61
2023/03/20 12:27:22;;;;;;;4.43;2.45;;;;;;;13.71;60.05;96930.97;2074827;28;20836;-61
2023/03/20 12:28:36;;;;;;;4.28;2.13;;;;;;;13.74;59.67;96929.94;2071349;28;20229;-61
2023/03/20 12:29:45;;;;;;;3.03;1.95;;;;;;;13.38;59.83;96926.53;2072242;28;20231;-61
2023/03/20 12:31:08;;;;;;;3.78;1.80;;;;;;;13.20;60.36;96926.56;2075357;28;20232;-61
2023/03/20 12:32:18;;;;;;;4.63;1.98;;;;;;;13.23;60.65;96929.00;2073713;28;20210;-61
2023/03/20 12:33:46;;;;;;;3.15;1.75;;;;;;;13.55;61.12;96923.91;2073836;28;20679;-61
2023/03/20 12:34:55;;;;;;;5.80;2.35;;;;;;;13.51;60.73;96918.88;2071128;28;20250;-61
2023/03/20 12:35:57;;;;;;;5.47;2.05;;;;;;;13.05;60.60;96930.78;2073801;28;20202;-61
2023/03/20 12:36:59;;;;;;;6.63;2.00;;;;;;;12.94;61.71;96925.25;2075498;28;20198;-61
2023/03/20 12:38:01;;;;;;;5.53;2.10;;;;;;;12.86;61.68;96925.63;2074734;28;20720;-61
2023/03/20 12:39:09;;;;;;;6.20;2.38;;;;;;;13.08;61.17;96924.53;2073760;28;20198;-61
2023/03/20 12:40:16;;;;;;;4.80;2.28;;;;;;;13.04;61.82;96918.59;2076407;28;20249;-61
2023/03/20 12:41:30;;;;;;;3.05;1.85;;;;;;;12.96;60.98;96914.66;2075886;28;20237;-61
2023/03/20 12:42:50;;;;;;;3.90;2.20;;;;;;;13.27;61.53;96924.47;2074627;28;20208;-61
2023/03/20 12:44:14;;;;;;;3.20;1.85;;;;;;;13.09;60.41;96915.75;2073210;28;20356;-61
2023/03/20 12:45:20;;;;;;;5.75;2.22;;;;;;;13.23;60.58;96917.69;2073113;28;20252;-61
2023/03/20 12:46:43;;;;;;;5.35;1.63;;;;;;;13.61;59.31;96911.41;2075649;28;20205;-61
2023/03/20 12:48:01;;;;;;;9.90;2.47;;;;;;;13.27;59.35;96913.09;2071540;28;20325;-61
2023/03/20 12:49:11;;;;;;;8.27;2.58;;;;;;;12.98;59.38;96910.22;2072261;28;20553;-61
2023/03/20 12:50:31;;;;;;;2.30;1.35;;;;;;;13.44;59.65;96915.75;2078451;28;20205;-61
2023/03/20 12:51:58;;;;;;;5.25;2.20;;;;;;;13.50;59.33;96911.97;2077283;28;20740;-61
2023/03/20 12:53:18;;;;;;;5.25;1.83;;;;;;;13.41;59.91;96915.06;2075146;28;20607;-61
2023/03/20 12:54:31;;;;;;;4.85;2.33;;;;;;;13.31;60.29;96918.13;2073502;28;20738;-60
2023/03/20 12:55:50;;;;;;;17.33;3.67;;;;;;;13.07;60.09;96917.59;2073144;28;20545;-59
2023/03/20 12:57:19;;;;;;;20.92;5.85;;;;;;;12.71;60.30;96914.13;2074303;28;20207;-60
2023/03/20 12:59:05;;;;;;;13.68;3.20;;;;;;;12.58;61.66;96913.00;2074037;28;20198;-60
2023/03/20 13:00:22;;;;;;;31.00;4.10;;;;;;;12.54;61.41;96909.72;2070355;28;20229;-60
2023/03/20 13:01:31;;;;;;;8.23;3.08;;;;;;;12.29;62.06;96899.56;2068531;28;20588;-60
2023/03/20 13:02:38;;;;;;;2.75;1.58;;;;;;;12.27;61.61;96908.41;2073080;28;20238;-60
2023/03/20 13:04:17;;;;;;;7.32;2.00;;;;;;;12.07;61.74;96907.56;2075858;28;20693;-60
2023/03/20 13:06:05;;;;;;;8.45;2.03;;;;;;;11.91;62.14;96903.00;2070792;28;20604;-61
2023/03/20 13:07:17;;;;;;;4.07;1.75;;;;;;;12.07;62.20;96902.31;2073894;28;20264;-61
2023/03/20 13:08:35;;;;;;;3.00;1.65;;;;;;;12.60;61.01;96907.72;2073186;28;20198;-60
2023/03/20 13:10:15;;;;;;;5.75;1.95;;;;;;;13.70;58.56;96900.44;2073372;28;20228;-60
2023/03/20 13:11:29;;;;;;;3.67;1.40;;;;;;;14.88;55.84;96896.59;2075218;28;20191;-60
2023/03/20 13:12:50;;;;;;;4.95;1.42;;;;;;;14.87;53.47;96901.00;2076537;28;20201;-60
2023/03/20 13:14:03;;;;;;;5.68;1.08;;;;;;;14.77;53.68;96894.59;2077310;28;20202;-60
2023/03/20 13:15:22;;;;;;;2.70;1.08;;;;;;;14.93;53.75;96899.78;2075998;28;20601;-60
2023/03/20 13:16:52;;;;;;;2.78;1.27;;;;;;;14.73;53.72;96895.69;2075415;28;20199;-61
2023/03/20 13:17:53;;;;;;;4.00;1.20;;;;;;;14.73;52.67;96899.19;2078384;28;20233;-61
2023/03/20 13:19:10;;;;;;;3.28;1.27;;;;;;;15.06;52.45;96899.91;2076211;28;20203;-61
2023/03/20 13:20:27;;;;;;;5.10;1.23;;;;;;;15.33;52.22;96884.31;2074871;28;20221;-61
2023/03/20 13:21:43;;;;;;;5.32;1.50;;;;;;;14.99;51.60;96886.28;2073163;28;20870;-61
2023/03/20 13:23:08;;;;;;;2.33;1.30;;;;;;;14.48;52.54;96881.31;2076586;28;20280;-60
2023/03/20 13:24:31;;;;;;;2.85;1.35;;;;;;;15.06;52.41;96885.00;2076053;28;20198;-61
2023/03/20 13:25:52;;;;;;;2.17;1.00;;;;;;;14.79;51.16;96877.81;2075311;28;20202;-60
2023/03/20 13:27:06;;;;;;;3.15;1.40;;;;;;;14.67;51.45;96887.22;2075689;28;20252;-61
2023/03/20 13:28:44;;;;;;;3.75;1.10;;;;;;;15.33;51.57;96884.31;2076959;28;20285;-61
2023/03/20 13:30:23;;;;;;;4.55;1.40;;;;;;;14.75;51.40;96875.44;2077934;28;20255;-60
2023/03/20 13:31:41;;;;;;;3.05;1.42;;;;;;;14.74;51.52;96877.22;2076467;28;20205;-60
2023/03/20 13:33:16;;;;;;;4.35;1.20;;;;;;;15.23;50.59;96884.00;2072718;28;20198;-60
2023/03/20 13:34:53;;;;;;;3.17;1.15;;;;;;;14.47;51.75;96882.22;2075520;28;20264;-61
2023/03/20 13:36:03;;;;;;;1.80;1.00;;;;;;;15.34;51.90;96878.09;2075830;28;20268;-61
2023/03/20 13:37:14;;;;;;;2.60;1.10;;;;;;;15.85;50.47;96871.56;2072729;28;20284;-61
2023/03/20 13:38:32;;;;;;;2.22;1.30;;;;;;;15.97;49.69;96862.88;2073224;28;20229;-61
2023/03/20 13:39:43;;;;;;;1.70;1.08;;;;;;;16.13;49.79;96853.06;2073741;28;20253;-62
2023/03/20 13:40:46;;;;;;;1.70;1.00;;;;;;;16.43;48.84;96861.72;2074953;28;20206;-61
2023/03/20 13:41:48;;;;;;;2.30;1.08;;;;;;;16.24;48.82;96856.78;2076104;28;20689;-61
2023/03/20 13:42:58;;;;;;;2.47;1.25;;;;;;;16.14;49.01;96862.66;2075370;28;20202;-61
2023/03/20 13:44:03;;;;;;;2.22;1.00;;;;;;;16.16;49.51;96860.78;2075501;28;20785;-61
2023/03/20 13:45:20;;;;;;;1.90;0.90;;;;;;;15.97;49.46;96861.09;2082198;28;20266;-60
2023/03/20 13:47:12;;;;;;;17.70;10.50;;;;;;;15.63;50.59;96867.56;2080599;28;20203;-60
2023/03/20 13:48:34;;;;;;;5.50;3.47;;;;;;;14.91;51.27;96864.88;2075267;28;20784;-59
2023/03/20 13:49:40;;;;;;;5.43;2.88;;;;;;;14.79;52.40;96851.50;2074384;28;20308;-60
2023/03/20 13:50:50;;;;;;;5.78;1.83;;;;;;;14.72;52.65;96865.09;2076666;28;20194;-60
2023/03/20 13:52:08;;;;;;;4.47;1.60;;;;;;;14.56;52.27;96860.69;2074338;28;20202;-60
2023/03/20 13:53:21;;;;;;;4.95;1.27;;;;;;;14.34;53.43;96855.81;2072716;28;20194;-59
2023/03/20 13:54:44;;;;;;;3.67;1.30;;;;;;;14.32;52.81;96858.53;2073676;28;20596;-60
2023/03/20 13:55:57;;;;;;;3.30;1.42;;;;;;;14.16;53.14;96852.44;2075073;28;20713;-59
2023/03/20 13:57:10;;;;;;;3.67;1.77;;;;;;;14.32;53.87;96860.28;2077068;28;20660;-60
2023/03/20 13:58:38;;;;;;;1.50;1.00;;;;;;;14.40;53.50;96860.72;2074368;28;20198;-60